Time;durP1;ratioP1;P1;durP2;ratioP2;P2;SDS_P1;SDS_P2;PMS_P1;PMS_P2;Temp;Humidity;BMP_temperature;BMP_pressure;BME280_temperature;BME280_humidity;BME280_pressure;Samples;Min_cycle;Max_cycle;Signal;HPM_P1;HPM_P2
2023/08/09 00:02:28;;;;;;;3.58;2.35;;;;;;;;;;5004654;28;20124;-80
2023/08/09 00:05:13;;;;;;;4.95;2.55;;;;;;;;;;5009332;28;20033;-78
2023/08/09 00:07:59;;;;;;;4.93;2.25;;;;;;;;;;5009905;28;20057;-78
2023/08/09 00:10:44;;;;;;;4.35;1.52;;;;;;;;;;5010148;28;20080;-79
2023/08/09 00:13:29;;;;;;;2.92;2.17;;;;;;;;;;5023808;28;20615;-79
2023/08/09 00:16:14;;;;;;;5.07;1.88;;;;;;;;;;5027257;28;20036;-79
2023/08/09 00:19:00;;;;;;;4.22;2.00;;;;;;;;;;5010226;28;20468;-71
2023/08/09 00:21:46;;;;;;;3.10;1.67;;;;;;;;;;5027102;28;20040;-76
2023/08/09 00:24:31;;;;;;;3.75;2.10;;;;;;;;;;5017241;28;20029;-74
2023/08/09 00:27:17;;;;;;;4.70;2.13;;;;;;;;;;5011632;28;20163;-73
2023/08/09 00:30:03;;;;;;;3.30;1.80;;;;;;;;;;5010267;28;20111;-73
2023/08/09 00:32:48;;;;;;;3.58;2.10;;;;;;;;;;5001507;28;20537;-74
2023/08/09 00:35:34;;;;;;;4.93;1.88;;;;;;;;;;5013168;28;20121;-74
2023/08/09 00:38:19;;;;;;;6.97;2.58;;;;;;;;;;5010057;28;20064;-71
2023/08/09 00:41:04;;;;;;;7.18;2.03;;;;;;;;;;5011031;28;20022;-75
2023/08/09 00:43:50;;;;;;;5.05;2.22;;;;;;;;;;5010384;28;20504;-75
2023/08/09 00:46:35;;;;;;;5.68;2.25;;;;;;;;;;5018475;28;20260;-78
2023/08/09 00:49:21;;;;;;;3.25;1.88;;;;;;;;;;5014203;28;20018;-77
2023/08/09 00:52:06;;;;;;;5.65;2.15;;;;;;;;;;5027475;28;20033;-77
2023/08/09 00:54:52;;;;;;;7.18;2.17;;;;;;;;;;5009787;28;20025;-76
2023/08/09 00:57:37;;;;;;;4.57;1.90;;;;;;;;;;5029521;28;20452;-78
2023/08/09 01:00:22;;;;;;;4.25;2.55;;;;;;;;;;5004347;28;20021;-78
2023/08/09 01:03:07;;;;;;;4.28;2.30;;;;;;;;;;5021875;28;20035;-79
2023/08/09 01:06:04;;;;;;;2.58;1.88;;;;;;;;;;5013298;28;20033;-79
2023/08/09 01:08:56;;;;;;;3.78;2.25;;;;;;;;;;5039061;28;20108;-81
2023/08/09 01:11:46;;;;;;;4.35;2.10;;;;;;;;;;5031583;28;20365;-79
2023/08/09 01:14:32;;;;;;;6.30;2.92;;;;;;;;;;5023984;28;20129;-75
2023/08/09 01:17:17;;;;;;;4.43;2.50;;;;;;;;;;5024948;28;20030;-72
2023/08/09 01:20:10;;;;;;;4.45;2.47;;;;;;;;;;4995587;28;20088;-72
2023/08/09 01:22:56;;;;;;;3.40;1.80;;;;;;;;;;5014155;28;20424;-72
2023/08/09 01:25:41;;;;;;;2.33;1.75;;;;;;;;;;5021543;28;20641;-71
2023/08/09 01:28:26;;;;;;;7.05;2.20;;;;;;;;;;5020065;28;20029;-71
2023/08/09 01:31:11;;;;;;;2.45;1.60;;;;;;;;;;5005824;28;20022;-75
2023/08/09 01:33:57;;;;;;;3.83;2.00;;;;;;;;;;5024747;28;20087;-73
2023/08/09 01:36:45;;;;;;;5.68;2.35;;;;;;;;;;5012734;28;20029;-76
2023/08/09 01:39:32;;;;;;;7.75;2.50;;;;;;;;;;5024821;28;20045;-75
2023/08/09 01:42:17;;;;;;;3.03;2.08;;;;;;;;;;5006823;28;20076;-77
2023/08/09 01:45:04;;;;;;;5.80;2.70;;;;;;;;;;5003583;28;20131;-76
2023/08/09 01:47:50;;;;;;;3.35;2.00;;;;;;;;;;5022666;28;20024;-74
2023/08/09 01:50:35;;;;;;;5.38;2.53;;;;;;;;;;5022952;28;20047;-75
2023/08/09 01:53:21;;;;;;;3.40;1.88;;;;;;;;;;5021837;28;20062;-72
2023/08/09 01:56:06;;;;;;;4.68;2.10;;;;;;;;;;5024034;28;20508;-70
2023/08/09 01:58:51;;;;;;;6.30;2.78;;;;;;;;;;5015203;28;20040;-71
2023/08/09 02:01:36;;;;;;;3.60;2.15;;;;;;;;;;5011567;28;20536;-71
2023/08/09 02:04:23;;;;;;;2.33;1.73;;;;;;;;;;5013956;28;20026;-72
2023/08/09 02:07:08;;;;;;;2.40;1.77;;;;;;;;;;5025727;28;20029;-73
2023/08/09 02:09:54;;;;;;;4.80;2.00;;;;;;;;;;5026867;28;20018;-72
2023/08/09 02:12:39;;;;;;;4.78;2.20;;;;;;;;;;5033832;28;20037;-75
2023/08/09 02:15:24;;;;;;;6.00;2.13;;;;;;;;;;5009135;28;20033;-75
2023/08/09 02:18:10;;;;;;;4.72;2.17;;;;;;;;;;5013466;28;20037;-76
2023/08/09 02:20:55;;;;;;;3.25;2.13;;;;;;;;;;5028720;28;20452;-76
2023/08/09 02:23:40;;;;;;;5.32;2.30;;;;;;;;;;5015064;28;20033;-76
2023/08/09 02:26:27;;;;;;;4.40;2.28;;;;;;;;;;5008701;28;20025;-71
2023/08/09 02:29:12;;;;;;;2.75;2.00;;;;;;;;;;5026355;28;20043;-79
2023/08/09 02:31:58;;;;;;;5.30;2.00;;;;;;;;;;5013924;28;20056;-73
2023/08/09 02:34:44;;;;;;;3.13;2.05;;;;;;;;;;5013954;28;20026;-72
2023/08/09 02:37:29;;;;;;;4.63;2.67;;;;;;;;;;5023811;28;20120;-72
2023/08/09 02:40:15;;;;;;;4.38;2.20;;;;;;;;;;5007042;28;20033;-71
2023/08/09 02:43:00;;;;;;;5.00;3.08;;;;;;;;;;5041651;28;20045;-72
2023/08/09 02:45:45;;;;;;;6.38;1.77;;;;;;;;;;5012431;28;20025;-77
2023/08/09 02:48:31;;;;;;;2.45;1.73;;;;;;;;;;5008708;28;20022;-77
2023/08/09 02:51:16;;;;;;;5.15;2.42;;;;;;;;;;5012215;28;20037;-75
2023/08/09 02:54:02;;;;;;;4.55;1.80;;;;;;;;;;5007010;28;20373;-77
2023/08/09 02:56:47;;;;;;;4.40;1.90;;;;;;;;;;5014336;28;20114;-77
2023/08/09 02:59:33;;;;;;;5.00;2.47;;;;;;;;;;5014219;28;20044;-77
2023/08/09 03:02:18;;;;;;;3.35;2.08;;;;;;;;;;5006859;28;20038;-77
2023/08/09 03:05:04;;;;;;;4.95;2.28;;;;;;;;;;5025267;28;20034;-71
2023/08/09 03:07:49;;;;;;;4.05;2.08;;;;;;;;;;5012947;28;20056;-76
2023/08/09 03:10:34;;;;;;;3.35;1.88;;;;;;;;;;5021756;28;20128;-76
2023/08/09 03:13:19;;;;;;;5.25;2.30;;;;;;;;;;5014693;28;20113;-75
2023/08/09 03:16:05;;;;;;;5.38;2.30;;;;;;;;;;5012496;28;20141;-77
2023/08/09 03:18:50;;;;;;;5.40;2.10;;;;;;;;;;5022949;28;20412;-75
2023/08/09 03:21:36;;;;;;;3.10;1.92;;;;;;;;;;5010003;28;20132;-74
2023/08/09 03:24:21;;;;;;;3.95;2.05;;;;;;;;;;5011986;28;20036;-76
2023/08/09 03:27:06;;;;;;;4.47;1.95;;;;;;;;;;5002401;28;20472;-77
2023/08/09 03:29:51;;;;;;;7.32;2.40;;;;;;;;;;5011919;28;20075;-76
2023/08/09 03:32:37;;;;;;;2.83;2.13;;;;;;;;;;5011353;28;20355;-76
2023/08/09 03:35:22;;;;;;;3.45;2.35;;;;;;;;;;5012593;28;20037;-75
2023/08/09 03:38:07;;;;;;;5.63;2.50;;;;;;;;;;5007945;28;20037;-77
2023/08/09 03:40:52;;;;;;;3.33;2.03;;;;;;;;;;5010975;28;20034;-75
2023/08/09 03:43:37;;;;;;;4.53;2.20;;;;;;;;;;5011446;28;20053;-79
2023/08/09 03:46:23;;;;;;;4.15;2.63;;;;;;;;;;5007603;28;20114;-78
2023/08/09 03:49:08;;;;;;;5.00;2.00;;;;;;;;;;5009991;28;20038;-78
2023/08/09 03:51:54;;;;;;;5.38;2.80;;;;;;;;;;5003512;28;20060;-77
2023/08/09 03:54:39;;;;;;;3.72;2.00;;;;;;;;;;5013857;28;20071;-76
2023/08/09 03:57:24;;;;;;;5.72;2.60;;;;;;;;;;5016342;28;20061;-76
2023/08/09 04:00:17;;;;;;;4.57;2.50;;;;;;;;;;5012429;28;20510;-71
2023/08/09 04:03:02;;;;;;;3.55;2.22;;;;;;;;;;5026725;28;20028;-74
2023/08/09 04:05:48;;;;;;;3.45;2.15;;;;;;;;;;5007563;28;20038;-73
2023/08/09 04:08:33;;;;;;;5.40;2.80;;;;;;;;;;5018875;28;20195;-72
2023/08/09 04:11:18;;;;;;;6.07;2.42;;;;;;;;;;5024168;28;20113;-71
2023/08/09 04:14:04;;;;;;;10.75;1.90;;;;;;;;;;5027066;28;20139;-71
2023/08/09 04:16:49;;;;;;;5.57;2.00;;;;;;;;;;5024692;28;20067;-76
2023/08/09 04:19:34;;;;;;;7.32;2.40;;;;;;;;;;5002894;28;20412;-75
2023/08/09 04:22:19;;;;;;;2.55;2.10;;;;;;;;;;5013371;28;20061;-75
2023/08/09 04:25:05;;;;;;;3.03;2.13;;;;;;;;;;5010695;28;20021;-74
2023/08/09 04:27:51;;;;;;;4.57;2.65;;;;;;;;;;5012105;28;20431;-76
2023/08/09 04:30:37;;;;;;;4.63;2.33;;;;;;;;;;5011799;28;20039;-75
2023/08/09 04:33:22;;;;;;;4.05;2.35;;;;;;;;;;5009986;28;20427;-74
2023/08/09 04:36:08;;;;;;;4.68;2.65;;;;;;;;;;5029809;28;20283;-75
2023/08/09 04:38:53;;;;;;;3.55;1.92;;;;;;;;;;5011258;28;20381;-75
2023/08/09 04:41:39;;;;;;;4.40;2.35;;;;;;;;;;5022565;28;20083;-74
2023/08/09 04:44:25;;;;;;;2.60;1.98;;;;;;;;;;5024487;28;20048;-76
2023/08/09 04:47:10;;;;;;;3.42;2.20;;;;;;;;;;5017647;28;20644;-74
2023/08/09 04:49:55;;;;;;;5.53;2.40;;;;;;;;;;5025587;28;20033;-74
2023/08/09 04:52:42;;;;;;;3.92;2.30;;;;;;;;;;5004541;28;20034;-75
2023/08/09 04:55:27;;;;;;;5.20;2.28;;;;;;;;;;5012801;28;20048;-75
2023/08/09 04:58:12;;;;;;;4.22;1.90;;;;;;;;;;5024672;28;20033;-76
2023/08/09 05:00:58;;;;;;;2.58;1.85;;;;;;;;;;5015031;28;20025;-79
2023/08/09 05:03:43;;;;;;;5.78;2.03;;;;;;;;;;5008564;28;20033;-76
2023/08/09 05:06:28;;;;;;;4.85;2.25;;;;;;;;;;5012022;28;20029;-77
2023/08/09 05:09:13;;;;;;;4.03;2.17;;;;;;;;;;5013225;28;20541;-77
2023/08/09 05:11:58;;;;;;;4.13;1.83;;;;;;;;;;5016698;28;20036;-78
2023/08/09 05:14:44;;;;;;;3.25;1.63;;;;;;;;;;5021678;28;20528;-71
2023/08/09 05:17:29;;;;;;;3.78;2.13;;;;;;;;;;5020322;28;20458;-78
2023/08/09 05:20:15;;;;;;;4.30;1.90;;;;;;;;;;5011947;28;20725;-77
2023/08/09 05:23:01;;;;;;;5.85;2.40;;;;;;;;;;5036753;28;20480;-79
2023/08/09 05:25:46;;;;;;;4.63;2.47;;;;;;;;;;5026879;28;20033;-77
2023/08/09 05:28:31;;;;;;;4.63;2.35;;;;;;;;;;5028075;28;20025;-80
2023/08/09 05:31:16;;;;;;;4.80;2.15;;;;;;;;;;5025640;28;20057;-71
2023/08/09 05:34:02;;;;;;;7.15;2.30;;;;;;;;;;5023531;28;20052;-72
2023/08/09 05:36:47;;;;;;;4.22;2.10;;;;;;;;;;5011570;28;20027;-72
2023/08/09 05:39:32;;;;;;;3.30;1.90;;;;;;;;;;5029677;28;20043;-71
2023/08/09 05:42:17;;;;;;;2.40;1.63;;;;;;;;;;5024189;28;20022;-70
2023/08/09 05:45:03;;;;;;;4.38;1.92;;;;;;;;;;5033628;28;20041;-71
2023/08/09 05:47:49;;;;;;;5.93;2.17;;;;;;;;;;5020261;28;20018;-70
2023/08/09 05:50:34;;;;;;;3.47;1.65;;;;;;;;;;5008682;28;20045;-75
2023/08/09 05:53:19;;;;;;;4.68;2.30;;;;;;;;;;5002121;28;20026;-76
2023/08/09 05:56:06;;;;;;;3.35;2.20;;;;;;;;;;5006777;28;20053;-79
2023/08/09 05:58:51;;;;;;;3.92;1.88;;;;;;;;;;5008952;28;20071;-75
2023/08/09 06:01:36;;;;;;;4.45;2.10;;;;;;;;;;5008599;28;20502;-77
2023/08/09 06:04:22;;;;;;;4.45;1.77;;;;;;;;;;5014410;28;20022;-78
2023/08/09 06:07:07;;;;;;;5.20;2.30;;;;;;;;;;5016446;28;20018;-77
2023/08/09 06:09:53;;;;;;;3.13;2.03;;;;;;;;;;5011341;28;20543;-70
2023/08/09 06:12:38;;;;;;;2.90;1.48;;;;;;;;;;5026020;28;20380;-78
2023/08/09 06:15:23;;;;;;;6.05;2.30;;;;;;;;;;5010020;28;21061;-80
2023/08/09 06:18:08;;;;;;;3.70;2.25;;;;;;;;;;5020362;28;20124;-78
2023/08/09 06:20:54;;;;;;;2.83;1.80;;;;;;;;;;5009792;28;20030;-80
2023/08/09 06:23:40;;;;;;;3.17;1.83;;;;;;;;;;5023779;28;20033;-82
2023/08/09 06:26:25;;;;;;;3.45;2.03;;;;;;;;;;5026630;28;20061;-74
2023/08/09 06:29:10;;;;;;;3.22;1.90;;;;;;;;;;5011543;28;20083;-76
2023/08/09 06:31:55;;;;;;;3.95;1.92;;;;;;;;;;5024242;28;20061;-72
2023/08/09 06:34:40;;;;;;;4.68;1.63;;;;;;;;;;5029301;28;20059;-73
2023/08/09 06:37:26;;;;;;;3.53;1.63;;;;;;;;;;5022880;28;20063;-74
2023/08/09 06:40:11;;;;;;;2.28;1.63;;;;;;;;;;5015848;28;20025;-74
2023/08/09 06:42:56;;;;;;;2.75;1.65;;;;;;;;;;5027715;28;20026;-74
2023/08/09 06:45:41;;;;;;;4.30;1.83;;;;;;;;;;5023299;28;20045;-69
2023/08/09 06:48:29;;;;;;;3.47;1.63;;;;;;;;;;5026292;28;20025;-77
2023/08/09 06:51:15;;;;;;;4.95;2.05;;;;;;;;;;5012969;28;20025;-77
2023/08/09 06:54:00;;;;;;;1.58;1.35;;;;;;;;;;5011327;28;20435;-76
2023/08/09 06:56:45;;;;;;;8.07;1.95;;;;;;;;;;5013606;28;20086;-80
2023/08/09 06:59:30;;;;;;;2.92;2.10;;;;;;;;;;5028127;28;20492;-79
2023/08/09 07:02:16;;;;;;;5.95;2.03;;;;;;;;;;5014310;28;20483;-76
2023/08/09 07:05:08;;;;;;;2.45;1.40;;;;;;;;;;5009712;28;20044;-69
2023/08/09 07:07:54;;;;;;;6.28;2.58;;;;;;;;;;5018884;28;20194;-72
2023/08/09 07:10:40;;;;;;;3.00;1.52;;;;;;;;;;5026643;28;20037;-72
2023/08/09 07:13:25;;;;;;;3.38;1.50;;;;;;;;;;5011663;28;20073;-70
2023/08/09 07:16:10;;;;;;;4.93;1.80;;;;;;;;;;5021238;28;20061;-72
2023/08/09 07:18:56;;;;;;;5.25;1.50;;;;;;;;;;5025067;28;20037;-71
2023/08/09 07:21:41;;;;;;;3.05;1.85;;;;;;;;;;5027767;28;20035;-70
2023/08/09 07:24:26;;;;;;;3.00;1.75;;;;;;;;;;5007607;28;20091;-75
2023/08/09 07:27:12;;;;;;;5.43;2.15;;;;;;;;;;5014191;28;20029;-72
2023/08/09 07:29:57;;;;;;;3.67;1.88;;;;;;;;;;5027669;28;20242;-73
2023/08/09 07:32:43;;;;;;;6.47;3.50;;;;;;;;;;5020295;28;20145;-72
2023/08/09 07:35:28;;;;;;;3.42;1.85;;;;;;;;;;5024952;28;20061;-72
2023/08/09 07:38:14;;;;;;;3.92;1.63;;;;;;;;;;5020797;28;20037;-72
2023/08/09 07:41:00;;;;;;;2.35;1.60;;;;;;;;;;5023124;28;20014;-74
2023/08/09 07:43:46;;;;;;;6.15;1.92;;;;;;;;;;5012382;28;20059;-73
2023/08/09 07:46:31;;;;;;;2.45;1.60;;;;;;;;;;5023008;28;20387;-72
2023/08/09 07:49:16;;;;;;;4.90;1.85;;;;;;;;;;5009578;28;20076;-72
2023/08/09 07:52:01;;;;;;;3.83;1.88;;;;;;;;;;5019983;28;20017;-73
2023/08/09 07:54:47;;;;;;;4.60;1.83;;;;;;;;;;5027193;28;20112;-74
2023/08/09 07:57:33;;;;;;;4.78;2.80;;;;;;;;;;5024426;28;20067;-70
2023/08/09 08:00:18;;;;;;;5.95;3.30;;;;;;;;;;5025063;28;20476;-77
2023/08/09 08:03:03;;;;;;;7.40;3.33;;;;;;;;;;5025796;28;20079;-81
2023/08/09 08:05:49;;;;;;;6.40;3.60;;;;;;;;;;5011850;28;20432;-75
2023/08/09 08:08:35;;;;;;;5.65;2.97;;;;;;;;;;5020145;28;20025;-78
2023/08/09 08:11:20;;;;;;;5.50;2.30;;;;;;;;;;5009927;28;20591;-77
2023/08/09 08:14:06;;;;;;;5.28;2.85;;;;;;;;;;5006274;28;20037;-78
2023/08/09 08:16:51;;;;;;;6.10;2.75;;;;;;;;;;5024658;28;20025;-74
2023/08/09 08:19:36;;;;;;;7.03;3.80;;;;;;;;;;5009171;28;20418;-75
2023/08/09 08:22:22;;;;;;;7.57;2.70;;;;;;;;;;5011532;28;20492;-74
2023/08/09 08:25:07;;;;;;;4.22;2.58;;;;;;;;;;5009123;28;20033;-77
2023/08/09 08:27:53;;;;;;;4.63;1.92;;;;;;;;;;5011953;28;20021;-76
2023/08/09 08:30:38;;;;;;;3.25;1.90;;;;;;;;;;5013672;28;20037;-75
2023/08/09 08:33:24;;;;;;;3.50;1.83;;;;;;;;;;5020832;28;20576;-75
2023/08/09 08:36:10;;;;;;;6.40;2.47;;;;;;;;;;5032975;28;20037;-74
2023/08/09 08:38:55;;;;;;;3.67;2.15;;;;;;;;;;5013222;28;20037;-73
2023/08/09 08:41:41;;;;;;;6.50;3.00;;;;;;;;;;5023744;28;20116;-72
2023/08/09 08:44:26;;;;;;;3.53;2.17;;;;;;;;;;5006995;28;20085;-72
2023/08/09 08:47:12;;;;;;;2.03;1.60;;;;;;;;;;5034669;28;20495;-73
2023/08/09 08:49:57;;;;;;;4.85;2.00;;;;;;;;;;5022704;28;20087;-75
2023/08/09 08:52:44;;;;;;;5.68;1.88;;;;;;;;;;5022962;28;20112;-76
2023/08/09 08:55:30;;;;;;;4.28;1.70;;;;;;;;;;5019220;28;20103;-78
2023/08/09 08:58:15;;;;;;;2.55;1.92;;;;;;;;;;5009134;28;20037;-74
2023/08/09 09:01:03;;;;;;;3.55;1.85;;;;;;;;;;5025803;28;20132;-76
2023/08/09 09:03:48;;;;;;;1.98;1.60;;;;;;;;;;5023134;28;20488;-76
2023/08/09 09:06:33;;;;;;;4.78;2.40;;;;;;;;;;5004758;28;20021;-74
2023/08/09 09:09:20;;;;;;;4.05;2.35;;;;;;;;;;5022508;28;20148;-76
2023/08/09 09:12:05;;;;;;;5.05;2.58;;;;;;;;;;5030356;28;20064;-70
2023/08/09 09:14:54;;;;;;;3.45;1.90;;;;;;;;;;5031948;28;20090;-74
2023/08/09 09:17:41;;;;;;;3.83;2.00;;;;;;;;;;5022967;28;20099;-75
2023/08/09 09:20:33;;;;;;;5.18;2.22;;;;;;;;;;5024245;28;20076;-73
2023/08/09 09:23:27;;;;;;;3.20;2.08;;;;;;;;;;5033454;28;20044;-72
2023/08/09 09:26:18;;;;;;;3.50;1.35;;;;;;;;;;5024332;28;20029;-76
2023/08/09 09:29:06;;;;;;;3.17;1.45;;;;;;;;;;5026549;28;20052;-75
2023/08/09 09:31:51;;;;;;;3.55;1.73;;;;;;;;;;5024237;28;20087;-80
2023/08/09 09:34:39;;;;;;;4.15;2.20;;;;;;;;;;5020518;28;20330;-71
2023/08/09 09:37:28;;;;;;;6.57;2.88;;;;;;;;;;5027757;28;20056;-71
2023/08/09 09:40:28;;;;;;;4.13;2.13;;;;;;;;;;5028112;28;20043;-72
2023/08/09 09:43:15;;;;;;;4.97;2.30;;;;;;;;;;5039800;28;20060;-71
2023/08/09 09:46:00;;;;;;;4.25;2.30;;;;;;;;;;5021407;28;20520;-71
2023/08/09 09:48:47;;;;;;;8.27;1.98;;;;;;;;;;5029579;28;20026;-76
2023/08/09 09:51:33;;;;;;;3.30;1.70;;;;;;;;;;5026385;28;20049;-74
2023/08/09 09:54:19;;;;;;;4.32;1.70;;;;;;;;;;5010505;28;20140;-74
2023/08/09 09:57:04;;;;;;;5.22;2.40;;;;;;;;;;5030267;28;20109;-73
2023/08/09 09:59:50;;;;;;;4.28;2.20;;;;;;;;;;5029465;28;20033;-73
2023/08/09 10:02:39;;;;;;;5.32;2.30;;;;;;;;;;5023708;28;20029;-75
2023/08/09 10:05:24;;;;;;;5.50;2.70;;;;;;;;;;5027630;28;20021;-74
2023/08/09 10:08:10;;;;;;;4.65;1.98;;;;;;;;;;5031632;28;20021;-72
2023/08/09 10:10:56;;;;;;;4.05;1.73;;;;;;;;;;5031809;28;20033;-72
2023/08/09 10:13:42;;;;;;;4.30;1.73;;;;;;;;;;5024206;28;20033;-71
2023/08/09 10:16:29;;;;;;;2.83;1.70;;;;;;;;;;5025331;28;20030;-70
2023/08/09 10:19:17;;;;;;;2.85;1.65;;;;;;;;;;5013582;28;20033;-71
2023/08/09 10:22:03;;;;;;;4.47;1.73;;;;;;;;;;5026716;28;20096;-75
2023/08/09 10:24:50;;;;;;;3.63;1.83;;;;;;;;;;5031987;28;20074;-71
2023/08/09 10:28:02;;;;;;;3.38;2.00;;;;;;;;;;5028413;28;20116;-72
2023/08/09 10:30:49;;;;;;;5.50;1.60;;;;;;;;;;5024173;28;20033;-70
2023/08/09 10:33:35;;;;;;;5.22;2.60;;;;;;;;;;5024170;28;20037;-71
2023/08/09 10:36:33;;;;;;;4.47;1.95;;;;;;;;;;5009594;28;20029;-72
2023/08/09 10:39:18;;;;;;;3.35;1.75;;;;;;;;;;5024209;28;20107;-74
2023/08/09 10:42:08;;;;;;;3.15;2.00;;;;;;;;;;5024889;28;20565;-72
2023/08/09 10:44:54;;;;;;;;;;;;;;;;;;5028552;28;20049;-73
2023/08/09 10:47:40;;;;;;;3.25;1.63;;;;;;;;;;5010801;28;20360;-75
2023/08/09 10:50:30;;;;;;;3.80;1.75;;;;;;;;;;5027667;28;20238;-73
2023/08/09 10:53:21;;;;;;;2.85;1.70;;;;;;;;;;5010247;28;20033;-73
2023/08/09 10:56:26;;;;;;;3.42;1.58;;;;;;;;;;5025892;28;20096;-73
2023/08/09 10:59:22;;;;;;;4.85;1.90;;;;;;;;;;5039840;28;20037;-75
2023/08/09 11:02:07;;;;;;;5.47;1.67;;;;;;;;;;5020910;28;20657;-71
2023/08/09 11:04:52;;;;;;;3.30;1.70;;;;;;;;;;5022262;28;20703;-73
2023/08/09 11:07:44;;;;;;;4.32;1.40;;;;;;;;;;5029442;28;20033;-72
2023/08/09 11:10:29;;;;;;;4.68;1.60;;;;;;;;;;5033499;28;20029;-71
2023/08/09 11:13:16;;;;;;;4.43;1.85;;;;;;;;;;5029050;28;20017;-74
2023/08/09 11:16:06;;;;;;;5.07;2.00;;;;;;;;;;5008250;28;20030;-70
2023/08/09 11:19:00;;;;;;;5.20;1.92;;;;;;;;;;5025898;28;20040;-72
2023/08/09 11:21:46;;;;;;;6.57;1.73;;;;;;;;;;5027628;28;20021;-71
2023/08/09 11:24:31;;;;;;;3.72;2.15;;;;;;;;;;5024701;28;20147;-72
2023/08/09 11:27:17;;;;;;;6.00;2.05;;;;;;;;;;5020669;28;20108;-70
2023/08/09 11:30:02;;;;;;;4.43;1.92;;;;;;;;;;5029661;28;20068;-72
2023/08/09 11:32:55;;;;;;;3.25;1.83;;;;;;;;;;5018859;28;20056;-71
2023/08/09 11:35:44;;;;;;;2.38;1.65;;;;;;;;;;5025181;28;20119;-71
2023/08/09 11:38:30;;;;;;;4.55;1.92;;;;;;;;;;5025890;28;20036;-70
2023/08/09 11:41:15;;;;;;;3.00;1.75;;;;;;;;;;5022256;28;20219;-73
2023/08/09 11:44:03;;;;;;;2.80;1.75;;;;;;;;;;5018222;28;21191;-75
2023/08/09 11:46:51;;;;;;;2.40;1.50;;;;;;;;;;5025085;28;20029;-72
2023/08/09 11:49:36;;;;;;;6.57;2.00;;;;;;;;;;5027874;28;20038;-73
2023/08/09 11:52:22;;;;;;;3.90;1.70;;;;;;;;;;5021683;28;20104;-75
2023/08/09 11:55:09;;;;;;;4.43;1.95;;;;;;;;;;5007791;28;20076;-73
2023/08/09 11:57:55;;;;;;;2.67;2.05;;;;;;;;;;5022292;28;20125;-70
2023/08/09 12:00:40;;;;;;;2.70;1.77;;;;;;;;;;5019916;28;21421;-74
2023/08/09 12:03:26;;;;;;;3.22;1.83;;;;;;;;;;5023914;28;20033;-71
2023/08/09 12:06:11;;;;;;;4.03;1.63;;;;;;;;;;5032553;28;20117;-70
2023/08/09 12:08:56;;;;;;;4.22;1.80;;;;;;;;;;5025362;28;20112;-70
2023/08/09 12:11:48;;;;;;;4.55;2.00;;;;;;;;;;5029651;28;20033;-70
2023/08/09 12:14:36;;;;;;;2.90;1.80;;;;;;;;;;5028462;28;20026;-70
2023/08/09 12:17:26;;;;;;;3.38;1.98;;;;;;;;;;5031662;28;20600;-73
2023/08/09 12:20:11;;;;;;;1.92;1.55;;;;;;;;;;5029483;28;20509;-79
2023/08/09 12:22:56;;;;;;;3.58;2.20;;;;;;;;;;5026672;28;20035;-78
2023/08/09 12:25:43;;;;;;;5.03;1.98;;;;;;;;;;5011307;28;20410;-81
2023/08/09 12:28:28;;;;;;;4.35;2.33;;;;;;;;;;5022179;28;20022;-79
2023/08/09 12:31:14;;;;;;;3.15;1.52;;;;;;;;;;5019081;28;20155;-64
2023/08/09 12:33:59;;;;;;;5.35;2.15;;;;;;;;;;5021041;28;20026;-68
2023/08/09 12:36:44;;;;;;;4.63;1.85;;;;;;;;;;5023709;28;20545;-74
2023/08/09 12:39:30;;;;;;;3.17;1.67;;;;;;;;;;5020223;28;20048;-63
2023/08/09 12:42:15;;;;;;;3.20;1.45;;;;;;;;;;5031350;28;20072;-64
2023/08/09 12:45:01;;;;;;;3.38;1.67;;;;;;;;;;5011954;28;20056;-64
2023/08/09 12:47:47;;;;;;;4.55;2.00;;;;;;;;;;5020709;28;20048;-65
2023/08/09 12:50:32;;;;;;;10.95;2.72;;;;;;;;;;5023698;28;20333;-66
2023/08/09 12:53:17;;;;;;;1.98;1.70;;;;;;;;;;5022998;28;20476;-73
2023/08/09 12:56:03;;;;;;;3.15;1.50;;;;;;;;;;5027904;28;20025;-75
2023/08/09 12:58:48;;;;;;;1.98;1.45;;;;;;;;;;5024698;28;20052;-77
2023/08/09 13:01:34;;;;;;;4.65;1.73;;;;;;;;;;5022250;28;20021;-74
2023/08/09 13:04:23;;;;;;;4.72;1.80;;;;;;;;;;5019001;28;20562;-74
2023/08/09 13:07:09;;;;;;;3.42;1.80;;;;;;;;;;5029617;28;20030;-76
2023/08/09 13:09:54;;;;;;;5.18;2.20;;;;;;;;;;5020439;28;20106;-78
2023/08/09 13:12:39;;;;;;;2.47;1.63;;;;;;;;;;5022778;28;20061;-76
2023/08/09 13:15:24;;;;;;;4.35;1.65;;;;;;;;;;5011335;28;20071;-79
2023/08/09 13:18:10;;;;;;;5.07;1.92;;;;;;;;;;5022126;28;20629;-80
2023/08/09 13:20:55;;;;;;;4.63;2.00;;;;;;;;;;5022905;28;20018;-79
2023/08/09 13:23:40;;;;;;;4.07;2.25;;;;;;;;;;5036148;28;20021;-81
2023/08/09 13:26:26;;;;;;;5.65;2.17;;;;;;;;;;5024737;28;20026;-78
2023/08/09 13:29:11;;;;;;;2.45;1.67;;;;;;;;;;5030175;28;20120;-79
2023/08/09 13:31:56;;;;;;;4.05;1.77;;;;;;;;;;5024221;28;20579;-73
2023/08/09 13:34:41;;;;;;;2.83;1.80;;;;;;;;;;5019806;28;20033;-73
2023/08/09 13:37:26;;;;;;;5.75;2.10;;;;;;;;;;5025325;28;20492;-74
2023/08/09 13:40:12;;;;;;;3.10;1.83;;;;;;;;;;5029839;28;20033;-75
2023/08/09 13:42:57;;;;;;;4.32;2.25;;;;;;;;;;5025434;28;20562;-76
2023/08/09 13:45:42;;;;;;;2.47;1.60;;;;;;;;;;5021386;28;20107;-73
2023/08/09 13:48:27;;;;;;;2.42;1.80;;;;;;;;;;5012783;28;20024;-77
2023/08/09 13:51:13;;;;;;;2.58;1.60;;;;;;;;;;5025839;28;20029;-79
2023/08/09 13:53:58;;;;;;;4.68;1.90;;;;;;;;;;5030185;28;20459;-79
2023/08/09 13:56:43;;;;;;;2.65;1.75;;;;;;;;;;5027469;28;20029;-82
2023/08/09 13:59:29;;;;;;;3.53;2.03;;;;;;;;;;5014494;28;20030;-85
2023/08/09 14:02:14;;;;;;;5.63;2.33;;;;;;;;;;5032702;28;20067;-84
2023/08/09 14:04:59;;;;;;;3.70;2.08;;;;;;;;;;5014676;28;20395;-81
2023/08/09 14:07:44;;;;;;;6.18;2.13;;;;;;;;;;5024136;28;20014;-78
2023/08/09 14:10:30;;;;;;;3.38;1.80;;;;;;;;;;5012826;28;20469;-78
2023/08/09 14:13:15;;;;;;;4.30;1.58;;;;;;;;;;5031271;28;20024;-77
2023/08/09 14:16:00;;;;;;;2.75;1.40;;;;;;;;;;5024664;28;20033;-79
2023/08/09 14:18:47;;;;;;;7.13;1.80;;;;;;;;;;5025806;28;20237;-76
2023/08/09 14:21:32;;;;;;;5.50;1.70;;;;;;;;;;5013558;28;20025;-78
2023/08/09 14:24:18;;;;;;;4.20;1.98;;;;;;;;;;5020912;28;20492;-76
2023/08/09 14:27:03;;;;;;;5.53;1.90;;;;;;;;;;5031422;28;20037;-85
2023/08/09 14:29:48;;;;;;;3.05;1.58;;;;;;;;;;5028290;28;20095;-76
2023/08/09 14:32:34;;;;;;;4.35;1.83;;;;;;;;;;5023716;28;20484;-82
2023/08/09 14:35:21;;;;;;;3.40;1.85;;;;;;;;;;5027739;28;20428;-79
2023/08/09 14:38:06;;;;;;;3.75;1.77;;;;;;;;;;5017778;28;20461;-78
2023/08/09 14:40:54;;;;;;;4.70;1.75;;;;;;;;;;5037166;28;20029;-79
2023/08/09 14:43:39;;;;;;;2.72;1.92;;;;;;;;;;5024528;28;20171;-77
2023/08/09 14:46:24;;;;;;;5.68;2.05;;;;;;;;;;5026056;28;20013;-82
2023/08/09 14:49:09;;;;;;;3.67;1.75;;;;;;;;;;5023673;28;20522;-80
2023/08/09 14:51:56;;;;;;;4.97;1.65;;;;;;;;;;5030356;28;20117;-81
2023/08/09 14:54:41;;;;;;;4.10;1.83;;;;;;;;;;5014712;28;20113;-80
2023/08/09 14:57:26;;;;;;;4.50;2.25;;;;;;;;;;5022886;28;20496;-81
2023/08/09 15:00:13;;;;;;;3.53;1.67;;;;;;;;;;5024003;28;20053;-83
2023/08/09 15:02:59;;;;;;;3.83;1.70;;;;;;;;;;5022442;28;20034;-80
2023/08/09 15:05:44;;;;;;;2.10;1.60;;;;;;;;;;5026301;28;20100;-79
2023/08/09 15:08:29;;;;;;;2.70;2.13;;;;;;;;;;5024824;28;20057;-82
2023/08/09 15:11:16;;;;;;;2.88;1.50;;;;;;;;;;5027684;28;20040;-80
2023/08/09 15:14:01;;;;;;;4.40;2.15;;;;;;;;;;5014454;28;20025;-80
2023/08/09 15:16:46;;;;;;;2.90;1.65;;;;;;;;;;5026134;28;20403;-78
2023/08/09 15:19:31;;;;;;;3.70;2.05;;;;;;;;;;5010971;28;20096;-74
2023/08/09 15:22:17;;;;;;;3.33;1.88;;;;;;;;;;5024090;28;20100;-82
2023/08/09 15:25:13;;;;;;;1.70;1.60;;;;;;;;;;5011384;28;20017;-83
2023/08/09 15:28:00;;;;;;;6.10;1.90;;;;;;;;;;5014091;28;20136;-80
2023/08/09 15:30:45;;;;;;;1.80;1.40;;;;;;;;;;5026259;28;20087;-81
2023/08/09 15:33:30;;;;;;;4.35;1.95;;;;;;;;;;5022944;28;20489;-83
2023/08/09 15:36:16;;;;;;;8.00;1.77;;;;;;;;;;5025456;28;20033;-82
2023/08/09 15:39:02;;;;;;;3.17;2.15;;;;;;;;;;5011381;28;20067;-77
2023/08/09 15:41:47;;;;;;;3.35;2.00;;;;;;;;;;5023782;28;20056;-80
2023/08/09 15:44:32;;;;;;;4.45;1.90;;;;;;;;;;5021458;28;20041;-71
2023/08/09 15:47:17;;;;;;;2.50;1.73;;;;;;;;;;5023522;28;20110;-72
2023/08/09 15:50:03;;;;;;;5.72;2.47;;;;;;;;;;5023152;28;20033;-72
2023/08/09 15:52:48;;;;;;;1.77;1.30;;;;;;;;;;5017963;28;20127;-77
2023/08/09 15:55:34;;;;;;;4.45;1.92;;;;;;;;;;5021225;28;20021;-75
2023/08/09 15:58:20;;;;;;;2.38;1.40;;;;;;;;;;5035623;28;20056;-74
2023/08/09 16:01:07;;;;;;;3.15;1.40;;;;;;;;;;5023325;28;20072;-73
2023/08/09 16:03:52;;;;;;;4.93;1.65;;;;;;;;;;5011457;28;20029;-72
2023/08/09 16:06:37;;;;;;;1.95;1.63;;;;;;;;;;5021427;28;20052;-75
2023/08/09 16:09:24;;;;;;;2.85;1.63;;;;;;;;;;5023505;28;20025;-73
2023/08/09 16:12:10;;;;;;;2.15;1.52;;;;;;;;;;5024627;28;20025;-71
2023/08/09 16:14:55;;;;;;;4.15;2.00;;;;;;;;;;5025465;28;20040;-72
2023/08/09 16:17:41;;;;;;;5.78;2.42;;;;;;;;;;5018489;28;20298;-71
2023/08/09 16:20:26;;;;;;;3.03;2.00;;;;;;;;;;5027105;28;20416;-74
2023/08/09 16:23:11;;;;;;;4.47;1.92;;;;;;;;;;5022639;28;20103;-73
2023/08/09 16:25:57;;;;;;;3.47;2.22;;;;;;;;;;5022033;28;20187;-73
2023/08/09 16:28:42;;;;;;;3.85;1.70;;;;;;;;;;5022241;28;20025;-72
2023/08/09 16:31:27;;;;;;;2.42;1.83;;;;;;;;;;5027327;28;20262;-72
2023/08/09 16:34:13;;;;;;;2.22;1.60;;;;;;;;;;5026465;28;20184;-68
2023/08/09 16:36:58;;;;;;;2.25;1.75;;;;;;;;;;5021445;28;20029;-72